sensor_id;sensor_type;location;lat;lon;timestamp;P1;durP1;ratioP1;P2;durP2;ratioP2
8594;SDS011;4335;48.860;9.198;2022-10-16T00:01:30;4.60;;;2.13;;
8594;SDS011;4335;48.860;9.198;2022-10-16T00:03:57;1.53;;;1.43;;
8594;SDS011;4335;48.860;9.198;2022-10-16T00:06:28;2.77;;;1.80;;
8594;SDS011;4335;48.860;9.198;2022-10-16T00:08:55;2.13;;;1.93;;
8594;SDS011;4335;48.860;9.198;2022-10-16T00:11:23;4.80;;;1.77;;
8594;SDS011;4335;48.860;9.198;2022-10-16T00:13:56;2.43;;;1.80;;
8594;SDS011;4335;48.860;9.198;2022-10-16T00:16:24;1.97;;;1.70;;
8594;SDS011;4335;48.860;9.198;2022-10-16T00:18:51;1.93;;;1.60;;
8594;SDS011;4335;48.860;9.198;2022-10-16T00:21:19;2.33;;;2.03;;
8594;SDS011;4335;48.860;9.198;2022-10-16T00:23:51;2.53;;;2.17;;
8594;SDS011;4335;48.860;9.198;2022-10-16T00:26:19;1.70;;;1.60;;
8594;SDS011;4335;48.860;9.198;2022-10-16T00:28:46;2.50;;;2.10;;
8594;SDS011;4335;48.860;9.198;2022-10-16T00:31:17;3.70;;;2.20;;
8594;SDS011;4335;48.860;9.198;2022-10-16T00:33:45;2.37;;;1.73;;
8594;SDS011;4335;48.860;9.198;2022-10-16T00:36:20;4.53;;;1.90;;
8594;SDS011;4335;48.860;9.198;2022-10-16T00:38:49;1.77;;;1.60;;
8594;SDS011;4335;48.860;9.198;2022-10-16T00:41:19;3.07;;;2.73;;
8594;SDS011;4335;48.860;9.198;2022-10-16T00:43:54;2.53;;;2.30;;
8594;SDS011;4335;48.860;9.198;2022-10-16T00:46:22;5.63;;;1.90;;
8594;SDS011;4335;48.860;9.198;2022-10-16T00:48:57;2.10;;;1.87;;
8594;SDS011;4335;48.860;9.198;2022-10-16T00:51:28;6.30;;;2.00;;
8594;SDS011;4335;48.860;9.198;2022-10-16T00:53:58;2.80;;;2.13;;
8594;SDS011;4335;48.860;9.198;2022-10-16T00:56:25;2.30;;;1.70;;
8594;SDS011;4335;48.860;9.198;2022-10-16T00:58:52;2.13;;;1.93;;
8594;SDS011;4335;48.860;9.198;2022-10-16T01:01:22;2.57;;;1.60;;
8594;SDS011;4335;48.860;9.198;2022-10-16T01:03:48;1.47;;;1.37;;
8594;SDS011;4335;48.860;9.198;2022-10-16T01:06:19;3.40;;;1.80;;
8594;SDS011;4335;48.860;9.198;2022-10-16T01:08:52;1.80;;;1.50;;
8594;SDS011;4335;48.860;9.198;2022-10-16T01:11:38;3.17;;;1.90;;
8594;SDS011;4335;48.860;9.198;2022-10-16T01:14:21;1.70;;;1.60;;
8594;SDS011;4335;48.860;9.198;2022-10-16T01:16:53;2.10;;;1.70;;
8594;SDS011;4335;48.860;9.198;2022-10-16T01:19:27;6.97;;;2.27;;
8594;SDS011;4335;48.860;9.198;2022-10-16T01:22:07;3.37;;;2.10;;
8594;SDS011;4335;48.860;9.198;2022-10-16T01:24:37;2.70;;;1.70;;
8594;SDS011;4335;48.860;9.198;2022-10-16T01:27:10;2.00;;;1.70;;
8594;SDS011;4335;48.860;9.198;2022-10-16T01:29:45;2.70;;;1.83;;
8594;SDS011;4335;48.860;9.198;2022-10-16T01:32:23;3.00;;;1.87;;
8594;SDS011;4335;48.860;9.198;2022-10-16T01:34:58;2.00;;;1.77;;
8594;SDS011;4335;48.860;9.198;2022-10-16T01:37:32;2.43;;;1.87;;
8594;SDS011;4335;48.860;9.198;2022-10-16T01:40:08;5.47;;;3.27;;
8594;SDS011;4335;48.860;9.198;2022-10-16T01:42:42;2.87;;;2.50;;
8594;SDS011;4335;48.860;9.198;2022-10-16T01:45:16;4.57;;;1.90;;
8594;SDS011;4335;48.860;9.198;2022-10-16T01:47:46;1.97;;;1.70;;
8594;SDS011;4335;48.860;9.198;2022-10-16T01:50:14;4.07;;;2.00;;
8594;SDS011;4335;48.860;9.198;2022-10-16T01:52:44;4.23;;;1.93;;
8594;SDS011;4335;48.860;9.198;2022-10-16T01:55:14;3.80;;;2.10;;
8594;SDS011;4335;48.860;9.198;2022-10-16T01:57:45;2.33;;;2.13;;
8594;SDS011;4335;48.860;9.198;2022-10-16T02:00:14;2.30;;;2.10;;
8594;SDS011;4335;48.860;9.198;2022-10-16T02:02:47;3.07;;;1.63;;
8594;SDS011;4335;48.860;9.198;2022-10-16T02:05:21;3.33;;;1.90;;
8594;SDS011;4335;48.860;9.198;2022-10-16T02:07:52;3.37;;;2.60;;
8594;SDS011;4335;48.860;9.198;2022-10-16T02:10:19;2.53;;;2.10;;
8594;SDS011;4335;48.860;9.198;2022-10-16T02:12:49;3.37;;;2.00;;
8594;SDS011;4335;48.860;9.198;2022-10-16T02:15:19;2.23;;;1.90;;
8594;SDS011;4335;48.860;9.198;2022-10-16T02:17:49;2.70;;;1.50;;
8594;SDS011;4335;48.860;9.198;2022-10-16T02:20:15;4.10;;;1.83;;
8594;SDS011;4335;48.860;9.198;2022-10-16T02:22:43;3.97;;;2.50;;
8594;SDS011;4335;48.860;9.198;2022-10-16T02:25:13;3.17;;;2.33;;
8594;SDS011;4335;48.860;9.198;2022-10-16T02:27:47;2.20;;;1.80;;
8594;SDS011;4335;48.860;9.198;2022-10-16T02:30:25;3.23;;;2.00;;
8594;SDS011;4335;48.860;9.198;2022-10-16T02:32:55;1.70;;;1.60;;
8594;SDS011;4335;48.860;9.198;2022-10-16T02:35:24;2.57;;;2.00;;
8594;SDS011;4335;48.860;9.198;2022-10-16T02:37:52;1.87;;;1.67;;
8594;SDS011;4335;48.860;9.198;2022-10-16T02:40:20;2.07;;;1.87;;
8594;SDS011;4335;48.860;9.198;2022-10-16T02:42:49;3.87;;;2.17;;
8594;SDS011;4335;48.860;9.198;2022-10-16T02:45:18;2.17;;;1.67;;
8594;SDS011;4335;48.860;9.198;2022-10-16T02:47:45;5.53;;;2.10;;
8594;SDS011;4335;48.860;9.198;2022-10-16T02:50:11;2.30;;;2.00;;
8594;SDS011;4335;48.860;9.198;2022-10-16T02:52:38;2.93;;;1.83;;
8594;SDS011;4335;48.860;9.198;2022-10-16T02:55:08;2.50;;;2.00;;
8594;SDS011;4335;48.860;9.198;2022-10-16T02:57:38;4.63;;;2.03;;
8594;SDS011;4335;48.860;9.198;2022-10-16T03:00:09;2.77;;;2.00;;
8594;SDS011;4335;48.860;9.198;2022-10-16T03:02:39;2.00;;;1.80;;
8594;SDS011;4335;48.860;9.198;2022-10-16T03:05:06;2.83;;;1.70;;
8594;SDS011;4335;48.860;9.198;2022-10-16T03:07:34;3.00;;;2.20;;
8594;SDS011;4335;48.860;9.198;2022-10-16T03:10:00;3.10;;;1.90;;
8594;SDS011;4335;48.860;9.198;2022-10-16T03:12:34;5.73;;;2.40;;
8594;SDS011;4335;48.860;9.198;2022-10-16T03:15:01;3.27;;;2.50;;
8594;SDS011;4335;48.860;9.198;2022-10-16T03:17:28;3.93;;;2.53;;
8594;SDS011;4335;48.860;9.198;2022-10-16T03:19:55;2.13;;;1.80;;
8594;SDS011;4335;48.860;9.198;2022-10-16T03:22:21;3.40;;;2.00;;
8594;SDS011;4335;48.860;9.198;2022-10-16T03:24:51;3.67;;;2.00;;
8594;SDS011;4335;48.860;9.198;2022-10-16T03:27:17;1.90;;;1.70;;
8594;SDS011;4335;48.860;9.198;2022-10-16T03:29:44;3.07;;;1.90;;
8594;SDS011;4335;48.860;9.198;2022-10-16T03:32:11;2.73;;;1.90;;
8594;SDS011;4335;48.860;9.198;2022-10-16T03:34:41;4.07;;;2.10;;
8594;SDS011;4335;48.860;9.198;2022-10-16T03:37:08;3.27;;;1.77;;
8594;SDS011;4335;48.860;9.198;2022-10-16T03:39:39;2.33;;;1.80;;
8594;SDS011;4335;48.860;9.198;2022-10-16T03:42:05;3.47;;;2.20;;
8594;SDS011;4335;48.860;9.198;2022-10-16T03:44:32;2.57;;;2.07;;
8594;SDS011;4335;48.860;9.198;2022-10-16T03:46:59;2.60;;;1.90;;
8594;SDS011;4335;48.860;9.198;2022-10-16T03:49:25;2.17;;;1.80;;
8594;SDS011;4335;48.860;9.198;2022-10-16T03:51:55;3.13;;;1.60;;
8594;SDS011;4335;48.860;9.198;2022-10-16T03:54:22;2.90;;;1.70;;
8594;SDS011;4335;48.860;9.198;2022-10-16T03:56:54;2.53;;;1.80;;
8594;SDS011;4335;48.860;9.198;2022-10-16T03:59:21;3.53;;;1.87;;
8594;SDS011;4335;48.860;9.198;2022-10-16T04:01:47;2.20;;;1.77;;
8594;SDS011;4335;48.860;9.198;2022-10-16T04:04:14;2.73;;;2.07;;
8594;SDS011;4335;48.860;9.198;2022-10-16T04:06:43;2.40;;;1.80;;
8594;SDS011;4335;48.860;9.198;2022-10-16T04:09:10;2.37;;;1.80;;
8594;SDS011;4335;48.860;9.198;2022-10-16T04:11:37;2.00;;;1.53;;
8594;SDS011;4335;48.860;9.198;2022-10-16T04:14:04;2.03;;;1.60;;
8594;SDS011;4335;48.860;9.198;2022-10-16T04:16:34;2.10;;;1.90;;
8594;SDS011;4335;48.860;9.198;2022-10-16T04:19:00;2.20;;;2.00;;
8594;SDS011;4335;48.860;9.198;2022-10-16T04:21:27;3.90;;;1.93;;
8594;SDS011;4335;48.860;9.198;2022-10-16T04:23:54;3.10;;;1.90;;
8594;SDS011;4335;48.860;9.198;2022-10-16T04:26:21;3.07;;;2.10;;
8594;SDS011;4335;48.860;9.198;2022-10-16T04:28:48;2.13;;;1.93;;
8594;SDS011;4335;48.860;9.198;2022-10-16T04:31:15;4.80;;;3.10;;
8594;SDS011;4335;48.860;9.198;2022-10-16T04:33:42;5.37;;;2.07;;
8594;SDS011;4335;48.860;9.198;2022-10-16T04:36:08;3.13;;;2.10;;
8594;SDS011;4335;48.860;9.198;2022-10-16T04:38:35;2.47;;;1.90;;
8594;SDS011;4335;48.860;9.198;2022-10-16T04:41:04;2.77;;;2.10;;
8594;SDS011;4335;48.860;9.198;2022-10-16T04:43:40;2.10;;;1.90;;
8594;SDS011;4335;48.860;9.198;2022-10-16T04:46:07;2.60;;;2.13;;
8594;SDS011;4335;48.860;9.198;2022-10-16T04:48:37;2.07;;;1.70;;
8594;SDS011;4335;48.860;9.198;2022-10-16T04:51:05;1.93;;;1.70;;
8594;SDS011;4335;48.860;9.198;2022-10-16T04:53:32;2.50;;;2.20;;
8594;SDS011;4335;48.860;9.198;2022-10-16T04:55:59;3.40;;;1.70;;
8594;SDS011;4335;48.860;9.198;2022-10-16T04:58:34;2.50;;;1.80;;
8594;SDS011;4335;48.860;9.198;2022-10-16T05:01:07;4.53;;;2.10;;
8594;SDS011;4335;48.860;9.198;2022-10-16T05:03:34;2.63;;;1.83;;
8594;SDS011;4335;48.860;9.198;2022-10-16T05:06:06;2.50;;;1.90;;
8594;SDS011;4335;48.860;9.198;2022-10-16T05:08:33;2.87;;;2.00;;
8594;SDS011;4335;48.860;9.198;2022-10-16T05:11:00;3.83;;;2.03;;
8594;SDS011;4335;48.860;9.198;2022-10-16T05:13:26;3.50;;;2.00;;
8594;SDS011;4335;48.860;9.198;2022-10-16T05:15:56;3.33;;;2.10;;
8594;SDS011;4335;48.860;9.198;2022-10-16T05:18:31;3.77;;;1.93;;
8594;SDS011;4335;48.860;9.198;2022-10-16T05:20:57;2.67;;;1.67;;
8594;SDS011;4335;48.860;9.198;2022-10-16T05:23:24;2.57;;;1.70;;
8594;SDS011;4335;48.860;9.198;2022-10-16T05:25:58;2.20;;;1.80;;
8594;SDS011;4335;48.860;9.198;2022-10-16T05:28:28;2.00;;;1.80;;
8594;SDS011;4335;48.860;9.198;2022-10-16T05:30:58;3.40;;;1.87;;
8594;SDS011;4335;48.860;9.198;2022-10-16T05:33:26;2.00;;;1.70;;
8594;SDS011;4335;48.860;9.198;2022-10-16T05:35:56;2.70;;;1.90;;
8594;SDS011;4335;48.860;9.198;2022-10-16T05:38:22;2.77;;;1.80;;
8594;SDS011;4335;48.860;9.198;2022-10-16T05:40:52;2.33;;;1.90;;
8594;SDS011;4335;48.860;9.198;2022-10-16T05:43:19;3.53;;;1.50;;
8594;SDS011;4335;48.860;9.198;2022-10-16T05:45:54;2.83;;;1.90;;
8594;SDS011;4335;48.860;9.198;2022-10-16T05:48:22;3.23;;;1.70;;
8594;SDS011;4335;48.860;9.198;2022-10-16T05:50:52;3.83;;;1.87;;
8594;SDS011;4335;48.860;9.198;2022-10-16T05:53:29;4.13;;;2.00;;
8594;SDS011;4335;48.860;9.198;2022-10-16T05:55:56;2.10;;;1.90;;
8594;SDS011;4335;48.860;9.198;2022-10-16T05:58:24;5.20;;;1.90;;
8594;SDS011;4335;48.860;9.198;2022-10-16T06:00:54;3.03;;;2.00;;
8594;SDS011;4335;48.860;9.198;2022-10-16T06:03:21;4.00;;;2.37;;
8594;SDS011;4335;48.860;9.198;2022-10-16T06:05:48;2.73;;;1.83;;
8594;SDS011;4335;48.860;9.198;2022-10-16T06:08:19;2.43;;;1.63;;
8594;SDS011;4335;48.860;9.198;2022-10-16T06:10:47;2.50;;;1.77;;
8594;SDS011;4335;48.860;9.198;2022-10-16T06:13:14;2.57;;;1.70;;
8594;SDS011;4335;48.860;9.198;2022-10-16T06:15:41;4.97;;;2.07;;
8594;SDS011;4335;48.860;9.198;2022-10-16T06:18:08;4.70;;;2.10;;
8594;SDS011;4335;48.860;9.198;2022-10-16T06:20:38;6.53;;;5.13;;
8594;SDS011;4335;48.860;9.198;2022-10-16T06:23:08;9.83;;;6.27;;
8594;SDS011;4335;48.860;9.198;2022-10-16T06:25:38;6.87;;;3.57;;
8594;SDS011;4335;48.860;9.198;2022-10-16T06:28:04;3.77;;;2.40;;
8594;SDS011;4335;48.860;9.198;2022-10-16T06:30:31;2.77;;;2.03;;
8594;SDS011;4335;48.860;9.198;2022-10-16T06:32:58;4.57;;;2.83;;
8594;SDS011;4335;48.860;9.198;2022-10-16T06:35:31;2.77;;;2.57;;
8594;SDS011;4335;48.860;9.198;2022-10-16T06:37:57;7.20;;;4.93;;
8594;SDS011;4335;48.860;9.198;2022-10-16T06:40:24;11.03;;;6.20;;
8594;SDS011;4335;48.860;9.198;2022-10-16T06:42:53;5.53;;;4.60;;
8594;SDS011;4335;48.860;9.198;2022-10-16T06:45:23;7.07;;;4.57;;
8594;SDS011;4335;48.860;9.198;2022-10-16T06:47:51;4.83;;;2.77;;
8594;SDS011;4335;48.860;9.198;2022-10-16T06:50:23;3.10;;;2.50;;
8594;SDS011;4335;48.860;9.198;2022-10-16T06:52:53;5.27;;;2.60;;
8594;SDS011;4335;48.860;9.198;2022-10-16T06:55:20;5.87;;;2.93;;
8594;SDS011;4335;48.860;9.198;2022-10-16T06:57:46;7.73;;;3.33;;
8594;SDS011;4335;48.860;9.198;2022-10-16T07:00:15;3.47;;;3.17;;
8594;SDS011;4335;48.860;9.198;2022-10-16T07:02:44;3.17;;;2.87;;
8594;SDS011;4335;48.860;9.198;2022-10-16T07:05:11;4.77;;;2.10;;
8594;SDS011;4335;48.860;9.198;2022-10-16T07:07:40;3.50;;;2.20;;
8594;SDS011;4335;48.860;9.198;2022-10-16T07:10:10;5.73;;;4.30;;
8594;SDS011;4335;48.860;9.198;2022-10-16T07:12:37;4.33;;;2.87;;
8594;SDS011;4335;48.860;9.198;2022-10-16T07:15:04;5.90;;;5.30;;
8594;SDS011;4335;48.860;9.198;2022-10-16T07:17:32;6.57;;;4.60;;
8594;SDS011;4335;48.860;9.198;2022-10-16T07:19:59;6.60;;;3.83;;
8594;SDS011;4335;48.860;9.198;2022-10-16T07:22:32;5.93;;;3.70;;
8594;SDS011;4335;48.860;9.198;2022-10-16T07:24:58;3.67;;;3.30;;
8594;SDS011;4335;48.860;9.198;2022-10-16T07:27:25;5.33;;;3.13;;
8594;SDS011;4335;48.860;9.198;2022-10-16T07:30:06;3.27;;;2.90;;
8594;SDS011;4335;48.860;9.198;2022-10-16T07:32:34;6.07;;;4.13;;
8594;SDS011;4335;48.860;9.198;2022-10-16T07:35:01;4.50;;;3.30;;
8594;SDS011;4335;48.860;9.198;2022-10-16T07:37:31;7.67;;;5.63;;
8594;SDS011;4335;48.860;9.198;2022-10-16T07:39:57;5.20;;;3.57;;
8594;SDS011;4335;48.860;9.198;2022-10-16T07:42:27;6.63;;;4.37;;
8594;SDS011;4335;48.860;9.198;2022-10-16T07:44:54;9.10;;;6.43;;
8594;SDS011;4335;48.860;9.198;2022-10-16T07:47:20;5.57;;;4.20;;
8594;SDS011;4335;48.860;9.198;2022-10-16T07:49:48;5.53;;;4.30;;
8594;SDS011;4335;48.860;9.198;2022-10-16T07:52:14;3.93;;;3.30;;
8594;SDS011;4335;48.860;9.198;2022-10-16T07:54:44;7.43;;;3.30;;
8594;SDS011;4335;48.860;9.198;2022-10-16T07:57:11;5.63;;;3.77;;
8594;SDS011;4335;48.860;9.198;2022-10-16T07:59:52;7.40;;;4.27;;
8594;SDS011;4335;48.860;9.198;2022-10-16T08:02:19;6.10;;;4.53;;
8594;SDS011;4335;48.860;9.198;2022-10-16T08:04:49;5.63;;;3.50;;
8594;SDS011;4335;48.860;9.198;2022-10-16T08:07:16;6.87;;;4.10;;
8594;SDS011;4335;48.860;9.198;2022-10-16T08:09:43;6.17;;;3.30;;
8594;SDS011;4335;48.860;9.198;2022-10-16T08:12:12;3.50;;;3.20;;
8594;SDS011;4335;48.860;9.198;2022-10-16T08:14:39;5.13;;;2.60;;
8594;SDS011;4335;48.860;9.198;2022-10-16T08:17:08;2.90;;;2.53;;
8594;SDS011;4335;48.860;9.198;2022-10-16T08:19:35;3.50;;;2.53;;
8594;SDS011;4335;48.860;9.198;2022-10-16T08:22:02;4.57;;;3.10;;
8594;SDS011;4335;48.860;9.198;2022-10-16T08:24:34;4.43;;;3.33;;
8594;SDS011;4335;48.860;9.198;2022-10-16T08:27:02;3.70;;;2.33;;
8594;SDS011;4335;48.860;9.198;2022-10-16T08:29:29;4.60;;;2.37;;
8594;SDS011;4335;48.860;9.198;2022-10-16T08:31:55;3.90;;;2.10;;
8594;SDS011;4335;48.860;9.198;2022-10-16T08:34:22;2.20;;;1.90;;
8594;SDS011;4335;48.860;9.198;2022-10-16T08:36:55;3.37;;;2.97;;
8594;SDS011;4335;48.860;9.198;2022-10-16T08:39:28;4.50;;;3.27;;
8594;SDS011;4335;48.860;9.198;2022-10-16T08:42:07;2.57;;;2.37;;
8594;SDS011;4335;48.860;9.198;2022-10-16T08:47:52;2.40;;;2.20;;
8594;SDS011;4335;48.860;9.198;2022-10-16T08:50:26;3.67;;;3.03;;
8594;SDS011;4335;48.860;9.198;2022-10-16T08:52:58;4.33;;;2.47;;
8594;SDS011;4335;48.860;9.198;2022-10-16T08:55:29;3.73;;;2.00;;
8594;SDS011;4335;48.860;9.198;2022-10-16T08:58:09;5.77;;;2.27;;
8594;SDS011;4335;48.860;9.198;2022-10-16T09:00:39;5.23;;;1.90;;
8594;SDS011;4335;48.860;9.198;2022-10-16T09:03:07;5.37;;;2.07;;
8594;SDS011;4335;48.860;9.198;2022-10-16T09:05:54;4.27;;;3.43;;
8594;SDS011;4335;48.860;9.198;2022-10-16T09:08:33;2.93;;;2.53;;
8594;SDS011;4335;48.860;9.198;2022-10-16T09:11:10;2.80;;;2.10;;
8594;SDS011;4335;48.860;9.198;2022-10-16T09:13:45;3.10;;;2.80;;
8594;SDS011;4335;48.860;9.198;2022-10-16T09:16:23;4.20;;;2.20;;
8594;SDS011;4335;48.860;9.198;2022-10-16T09:18:58;2.90;;;2.40;;
8594;SDS011;4335;48.860;9.198;2022-10-16T09:21:30;3.77;;;2.80;;
8594;SDS011;4335;48.860;9.198;2022-10-16T09:23:59;4.20;;;2.53;;
8594;SDS011;4335;48.860;9.198;2022-10-16T09:26:34;4.17;;;2.40;;
8594;SDS011;4335;48.860;9.198;2022-10-16T09:29:00;3.10;;;2.10;;
8594;SDS011;4335;48.860;9.198;2022-10-16T09:31:31;4.30;;;3.90;;
8594;SDS011;4335;48.860;9.198;2022-10-16T09:34:02;2.57;;;2.30;;
8594;SDS011;4335;48.860;9.198;2022-10-16T09:36:32;3.13;;;2.17;;
8594;SDS011;4335;48.860;9.198;2022-10-16T09:39:09;5.37;;;3.00;;
8594;SDS011;4335;48.860;9.198;2022-10-16T09:41:37;2.83;;;2.07;;
8594;SDS011;4335;48.860;9.198;2022-10-16T09:44:06;2.57;;;2.10;;
8594;SDS011;4335;48.860;9.198;2022-10-16T09:46:45;2.53;;;2.20;;
8594;SDS011;4335;48.860;9.198;2022-10-16T09:49:19;4.97;;;2.50;;
8594;SDS011;4335;48.860;9.198;2022-10-16T09:51:48;4.37;;;1.90;;
8594;SDS011;4335;48.860;9.198;2022-10-16T09:54:16;3.07;;;2.30;;
8594;SDS011;4335;48.860;9.198;2022-10-16T09:56:44;4.50;;;2.80;;
8594;SDS011;4335;48.860;9.198;2022-10-16T09:59:15;6.23;;;5.00;;
8594;SDS011;4335;48.860;9.198;2022-10-16T10:01:44;5.33;;;3.37;;
8594;SDS011;4335;48.860;9.198;2022-10-16T10:04:12;3.50;;;2.60;;
8594;SDS011;4335;48.860;9.198;2022-10-16T10:06:41;3.40;;;1.95;;
8594;SDS011;4335;48.860;9.198;2022-10-16T10:09:18;1.83;;;1.63;;
8594;SDS011;4335;48.860;9.198;2022-10-16T10:11:50;1.73;;;1.55;;
8594;SDS011;4335;48.860;9.198;2022-10-16T10:14:25;1.92;;;1.58;;
8594;SDS011;4335;48.860;9.198;2022-10-16T10:17:07;4.22;;;1.60;;
8594;SDS011;4335;48.860;9.198;2022-10-16T10:19:42;4.05;;;2.08;;
8594;SDS011;4335;48.860;9.198;2022-10-16T10:22:18;2.75;;;1.80;;
8594;SDS011;4335;48.860;9.198;2022-10-16T10:25:14;4.95;;;1.80;;
8594;SDS011;4335;48.860;9.198;2022-10-16T10:27:48;1.75;;;1.65;;
8594;SDS011;4335;48.860;9.198;2022-10-16T10:30:35;2.55;;;1.60;;
8594;SDS011;4335;48.860;9.198;2022-10-16T10:33:12;4.38;;;2.47;;
8594;SDS011;4335;48.860;9.198;2022-10-16T10:35:48;3.28;;;1.75;;
8594;SDS011;4335;48.860;9.198;2022-10-16T10:38:27;2.45;;;1.95;;
8594;SDS011;4335;48.860;9.198;2022-10-16T10:41:04;4.55;;;2.72;;
8594;SDS011;4335;48.860;9.198;2022-10-16T10:43:55;3.22;;;1.65;;
8594;SDS011;4335;48.860;9.198;2022-10-16T10:46:32;3.65;;;1.30;;
8594;SDS011;4335;48.860;9.198;2022-10-16T10:49:04;2.28;;;1.73;;
8594;SDS011;4335;48.860;9.198;2022-10-16T10:51:47;2.00;;;1.63;;
8594;SDS011;4335;48.860;9.198;2022-10-16T10:54:24;4.90;;;2.22;;
8594;SDS011;4335;48.860;9.198;2022-10-16T10:57:06;3.45;;;2.13;;
8594;SDS011;4335;48.860;9.198;2022-10-16T10:59:59;3.00;;;1.70;;
8594;SDS011;4335;48.860;9.198;2022-10-16T11:02:44;2.85;;;1.70;;
8594;SDS011;4335;48.860;9.198;2022-10-16T11:05:23;2.10;;;1.90;;
8594;SDS011;4335;48.860;9.198;2022-10-16T11:07:58;2.13;;;1.60;;
8594;SDS011;4335;48.860;9.198;2022-10-16T11:10:28;4.13;;;2.08;;
8594;SDS011;4335;48.860;9.198;2022-10-16T11:13:04;3.53;;;1.98;;
8594;SDS011;4335;48.860;9.198;2022-10-16T11:15:41;4.97;;;2.30;;
8594;SDS011;4335;48.860;9.198;2022-10-16T11:18:11;2.63;;;1.73;;
8594;SDS011;4335;48.860;9.198;2022-10-16T11:20:49;4.43;;;1.77;;
8594;SDS011;4335;48.860;9.198;2022-10-16T11:23:23;2.57;;;2.23;;
8594;SDS011;4335;48.860;9.198;2022-10-16T11:25:54;3.87;;;2.10;;
8594;SDS011;4335;48.860;9.198;2022-10-16T11:28:26;3.33;;;2.50;;
8594;SDS011;4335;48.860;9.198;2022-10-16T11:30:57;2.20;;;2.00;;
8594;SDS011;4335;48.860;9.198;2022-10-16T11:33:44;3.03;;;2.00;;
8594;SDS011;4335;48.860;9.198;2022-10-16T11:36:16;1.83;;;1.50;;
8594;SDS011;4335;48.860;9.198;2022-10-16T11:38:49;2.30;;;2.10;;
8594;SDS011;4335;48.860;9.198;2022-10-16T11:41:26;2.20;;;2.00;;
8594;SDS011;4335;48.860;9.198;2022-10-16T11:44:03;2.17;;;1.97;;
8594;SDS011;4335;48.860;9.198;2022-10-16T11:46:40;3.23;;;2.50;;
8594;SDS011;4335;48.860;9.198;2022-10-16T11:49:12;3.53;;;2.50;;
8594;SDS011;4335;48.860;9.198;2022-10-16T11:51:43;5.93;;;4.93;;
8594;SDS011;4335;48.860;9.198;2022-10-16T11:54:18;4.83;;;3.00;;
8594;SDS011;4335;48.860;9.198;2022-10-16T11:56:54;4.13;;;2.53;;
8594;SDS011;4335;48.860;9.198;2022-10-16T11:59:30;3.73;;;2.60;;
8594;SDS011;4335;48.860;9.198;2022-10-16T12:02:07;2.53;;;2.33;;
8594;SDS011;4335;48.860;9.198;2022-10-16T12:04:58;3.47;;;2.53;;
8594;SDS011;4335;48.860;9.198;2022-10-16T12:07:41;2.67;;;1.90;;
8594;SDS011;4335;48.860;9.198;2022-10-16T12:10:18;1.70;;;1.60;;
8594;SDS011;4335;48.860;9.198;2022-10-16T12:12:47;2.47;;;2.00;;
8594;SDS011;4335;48.860;9.198;2022-10-16T12:15:22;2.17;;;2.00;;
8594;SDS011;4335;48.860;9.198;2022-10-16T12:17:50;2.37;;;2.00;;
8594;SDS011;4335;48.860;9.198;2022-10-16T12:20:22;3.40;;;1.70;;
8594;SDS011;4335;48.860;9.198;2022-10-16T12:22:52;3.10;;;1.70;;
8594;SDS011;4335;48.860;9.198;2022-10-16T12:25:25;2.23;;;1.97;;
8594;SDS011;4335;48.860;9.198;2022-10-16T12:27:54;4.07;;;2.43;;
8594;SDS011;4335;48.860;9.198;2022-10-16T12:30:30;2.27;;;1.90;;
8594;SDS011;4335;48.860;9.198;2022-10-16T12:33:02;3.47;;;1.97;;
8594;SDS011;4335;48.860;9.198;2022-10-16T12:35:30;5.10;;;3.73;;
8594;SDS011;4335;48.860;9.198;2022-10-16T12:38:06;2.07;;;1.73;;
8594;SDS011;4335;48.860;9.198;2022-10-16T12:40:38;2.30;;;2.10;;
8594;SDS011;4335;48.860;9.198;2022-10-16T12:43:12;2.63;;;1.43;;
8594;SDS011;4335;48.860;9.198;2022-10-16T12:46:03;1.80;;;1.70;;
8594;SDS011;4335;48.860;9.198;2022-10-16T12:48:45;2.83;;;1.60;;
8594;SDS011;4335;48.860;9.198;2022-10-16T12:51:20;2.27;;;1.83;;
8594;SDS011;4335;48.860;9.198;2022-10-16T12:53:59;2.00;;;1.63;;
8594;SDS011;4335;48.860;9.198;2022-10-16T12:56:28;1.77;;;1.67;;
8594;SDS011;4335;48.860;9.198;2022-10-16T12:59:14;3.00;;;2.57;;
8594;SDS011;4335;48.860;9.198;2022-10-16T13:01:52;2.80;;;2.03;;
8594;SDS011;4335;48.860;9.198;2022-10-16T13:04:40;2.70;;;1.87;;
8594;SDS011;4335;48.860;9.198;2022-10-16T13:07:23;3.00;;;2.27;;
8594;SDS011;4335;48.860;9.198;2022-10-16T13:10:02;3.17;;;1.80;;
8594;SDS011;4335;48.860;9.198;2022-10-16T13:12:47;1.90;;;1.60;;
8594;SDS011;4335;48.860;9.198;2022-10-16T13:15:38;3.97;;;1.73;;
8594;SDS011;4335;48.860;9.198;2022-10-16T13:18:18;2.53;;;1.83;;
8594;SDS011;4335;48.860;9.198;2022-10-16T13:20:52;2.80;;;1.70;;
8594;SDS011;4335;48.860;9.198;2022-10-16T13:23:30;2.33;;;1.70;;
8594;SDS011;4335;48.860;9.198;2022-10-16T13:26:07;2.27;;;1.70;;
8594;SDS011;4335;48.860;9.198;2022-10-16T13:28:42;3.63;;;2.13;;
8594;SDS011;4335;48.860;9.198;2022-10-16T13:31:11;2.70;;;1.70;;
8594;SDS011;4335;48.860;9.198;2022-10-16T13:33:47;1.60;;;1.50;;
8594;SDS011;4335;48.860;9.198;2022-10-16T13:36:28;1.83;;;1.50;;
8594;SDS011;4335;48.860;9.198;2022-10-16T13:39:12;2.03;;;1.63;;
8594;SDS011;4335;48.860;9.198;2022-10-16T13:41:40;2.70;;;1.90;;
8594;SDS011;4335;48.860;9.198;2022-10-16T13:44:11;2.63;;;1.70;;
8594;SDS011;4335;48.860;9.198;2022-10-16T13:46:40;2.53;;;1.77;;
8594;SDS011;4335;48.860;9.198;2022-10-16T13:49:12;3.43;;;1.67;;
8594;SDS011;4335;48.860;9.198;2022-10-16T13:51:40;2.20;;;1.47;;
8594;SDS011;4335;48.860;9.198;2022-10-16T13:54:10;2.40;;;1.53;;
8594;SDS011;4335;48.860;9.198;2022-10-16T13:56:38;1.93;;;1.73;;
8594;SDS011;4335;48.860;9.198;2022-10-16T13:59:07;5.57;;;1.73;;
8594;SDS011;4335;48.860;9.198;2022-10-16T14:01:49;2.17;;;1.97;;
8594;SDS011;4335;48.860;9.198;2022-10-16T14:04:18;2.50;;;1.63;;
8594;SDS011;4335;48.860;9.198;2022-10-16T14:06:46;5.63;;;1.73;;
8594;SDS011;4335;48.860;9.198;2022-10-16T14:09:18;3.40;;;1.63;;
8594;SDS011;4335;48.860;9.198;2022-10-16T14:11:49;3.50;;;1.80;;
8594;SDS011;4335;48.860;9.198;2022-10-16T14:14:21;3.73;;;1.87;;
8594;SDS011;4335;48.860;9.198;2022-10-16T14:16:48;2.43;;;2.00;;
8594;SDS011;4335;48.860;9.198;2022-10-16T14:19:18;2.50;;;2.30;;
8594;SDS011;4335;48.860;9.198;2022-10-16T14:21:48;3.20;;;2.37;;
8594;SDS011;4335;48.860;9.198;2022-10-16T14:24:24;3.33;;;2.30;;
8594;SDS011;4335;48.860;9.198;2022-10-16T14:26:53;2.90;;;2.20;;
8594;SDS011;4335;48.860;9.198;2022-10-16T14:29:21;3.97;;;2.33;;
8594;SDS011;4335;48.860;9.198;2022-10-16T14:31:54;2.43;;;1.80;;
8594;SDS011;4335;48.860;9.198;2022-10-16T14:34:23;3.60;;;2.00;;
8594;SDS011;4335;48.860;9.198;2022-10-16T14:36:52;2.43;;;1.80;;
8594;SDS011;4335;48.860;9.198;2022-10-16T14:39:20;1.70;;;1.60;;
8594;SDS011;4335;48.860;9.198;2022-10-16T14:41:48;1.97;;;1.77;;
8594;SDS011;4335;48.860;9.198;2022-10-16T14:44:18;4.83;;;2.27;;
8594;SDS011;4335;48.860;9.198;2022-10-16T14:46:47;3.63;;;2.07;;
8594;SDS011;4335;48.860;9.198;2022-10-16T14:49:15;4.20;;;2.90;;
8594;SDS011;4335;48.860;9.198;2022-10-16T14:51:45;2.73;;;1.87;;
8594;SDS011;4335;48.860;9.198;2022-10-16T14:54:13;3.13;;;2.10;;
8594;SDS011;4335;48.860;9.198;2022-10-16T14:56:47;2.93;;;1.63;;
8594;SDS011;4335;48.860;9.198;2022-10-16T14:59:17;3.60;;;1.90;;
8594;SDS011;4335;48.860;9.198;2022-10-16T15:01:47;2.50;;;1.90;;
8594;SDS011;4335;48.860;9.198;2022-10-16T15:04:14;3.00;;;2.27;;
8594;SDS011;4335;48.860;9.198;2022-10-16T15:06:41;4.20;;;2.17;;
8594;SDS011;4335;48.860;9.198;2022-10-16T15:09:12;3.70;;;1.80;;
8594;SDS011;4335;48.860;9.198;2022-10-16T15:11:38;3.63;;;1.80;;
8594;SDS011;4335;48.860;9.198;2022-10-16T15:14:05;2.87;;;2.43;;
8594;SDS011;4335;48.860;9.198;2022-10-16T15:16:34;2.60;;;2.40;;
8594;SDS011;4335;48.860;9.198;2022-10-16T15:19:01;6.13;;;2.53;;
8594;SDS011;4335;48.860;9.198;2022-10-16T15:21:28;2.87;;;2.50;;
8594;SDS011;4335;48.860;9.198;2022-10-16T15:23:59;6.13;;;3.13;;
8594;SDS011;4335;48.860;9.198;2022-10-16T15:26:27;3.57;;;2.60;;
8594;SDS011;4335;48.860;9.198;2022-10-16T15:29:00;2.43;;;2.23;;
8594;SDS011;4335;48.860;9.198;2022-10-16T15:31:27;3.77;;;2.50;;
8594;SDS011;4335;48.860;9.198;2022-10-16T15:33:56;2.60;;;2.23;;
8594;SDS011;4335;48.860;9.198;2022-10-16T15:36:32;3.13;;;2.70;;
8594;SDS011;4335;48.860;9.198;2022-10-16T15:39:02;4.77;;;2.20;;
8594;SDS011;4335;48.860;9.198;2022-10-16T15:41:32;3.97;;;1.60;;
8594;SDS011;4335;48.860;9.198;2022-10-16T15:43:59;2.50;;;2.27;;